sensor_id;sensor_type;location;lat;lon;timestamp;pressure;altitude;pressure_sealevel;temperature;humidity
68986;BME280;56035;37.534;-122.308;2023-02-17T00:00:58;101930.50;;;12.94;41.18
68986;BME280;56035;37.534;-122.308;2023-02-17T00:03:24;101935.91;;;12.89;41.74
68986;BME280;56035;37.534;-122.308;2023-02-17T00:05:51;101935.13;;;12.82;42.19
68986;BME280;56035;37.534;-122.308;2023-02-17T00:08:37;101924.97;;;12.76;42.22
68986;BME280;56035;37.534;-122.308;2023-02-17T00:11:03;101924.03;;;12.63;43.50
68986;BME280;56035;37.534;-122.308;2023-02-17T00:13:31;101926.16;;;12.61;42.83
68986;BME280;56035;37.534;-122.308;2023-02-17T00:15:58;101928.84;;;12.50;44.77
68986;BME280;56035;37.534;-122.308;2023-02-17T00:18:24;101920.81;;;12.41;42.53
68986;BME280;56035;37.534;-122.308;2023-02-17T00:20:51;101925.75;;;12.39;43.76
68986;BME280;56035;37.534;-122.308;2023-02-17T00:23:17;101918.63;;;12.25;44.78
68986;BME280;56035;37.534;-122.308;2023-02-17T00:25:43;101919.06;;;12.22;44.31
68986;BME280;56035;37.534;-122.308;2023-02-17T00:28:10;101914.38;;;12.23;44.61
68986;BME280;56035;37.534;-122.308;2023-02-17T00:30:37;101917.25;;;12.09;44.69
68986;BME280;56035;37.534;-122.308;2023-02-17T00:33:04;101922.66;;;11.98;45.43
68986;BME280;56035;37.534;-122.308;2023-02-17T00:35:30;101914.03;;;11.87;44.86
68986;BME280;56035;37.534;-122.308;2023-02-17T00:37:56;101920.63;;;11.80;45.73
68986;BME280;56035;37.534;-122.308;2023-02-17T00:40:22;101915.97;;;11.73;45.45
68986;BME280;56035;37.534;-122.308;2023-02-17T00:42:49;101908.19;;;11.64;45.53
68986;BME280;56035;37.534;-122.308;2023-02-17T00:45:15;101906.97;;;11.53;45.28
68986;BME280;56035;37.534;-122.308;2023-02-17T00:47:41;101908.94;;;11.46;45.63
68986;BME280;56035;37.534;-122.308;2023-02-17T00:50:08;101912.41;;;11.35;44.81
68986;BME280;56035;37.534;-122.308;2023-02-17T00:52:34;101906.69;;;11.23;44.37
68986;BME280;56035;37.534;-122.308;2023-02-17T00:55:00;101906.94;;;11.15;45.09
68986;BME280;56035;37.534;-122.308;2023-02-17T00:57:27;101906.97;;;11.01;45.16
68986;BME280;56035;37.534;-122.308;2023-02-17T00:59:57;101903.84;;;10.91;46.00
68986;BME280;56035;37.534;-122.308;2023-02-17T01:02:23;101907.88;;;10.82;46.07
68986;BME280;56035;37.534;-122.308;2023-02-17T01:04:49;101915.31;;;10.75;47.56
68986;BME280;56035;37.534;-122.308;2023-02-17T01:07:15;101912.16;;;10.65;46.93
68986;BME280;56035;37.534;-122.308;2023-02-17T01:09:42;101905.00;;;10.50;48.56
68986;BME280;56035;37.534;-122.308;2023-02-17T01:12:11;101908.38;;;10.39;47.87
68986;BME280;56035;37.534;-122.308;2023-02-17T01:14:37;101892.50;;;10.28;49.13
68986;BME280;56035;37.534;-122.308;2023-02-17T01:17:03;101894.81;;;10.18;49.36
68986;BME280;56035;37.534;-122.308;2023-02-17T01:19:29;101897.34;;;10.06;49.95
68986;BME280;56035;37.534;-122.308;2023-02-17T01:21:56;101898.19;;;9.93;49.04
68986;BME280;56035;37.534;-122.308;2023-02-17T01:24:22;101898.59;;;9.83;49.89
68986;BME280;56035;37.534;-122.308;2023-02-17T01:26:50;101892.88;;;9.72;50.34
68986;BME280;56035;37.534;-122.308;2023-02-17T01:29:16;101891.38;;;9.63;51.16
68986;BME280;56035;37.534;-122.308;2023-02-17T01:31:42;101893.69;;;9.52;51.10
68986;BME280;56035;37.534;-122.308;2023-02-17T01:34:09;101890.66;;;9.41;51.88
68986;BME280;56035;37.534;-122.308;2023-02-17T01:36:36;101889.13;;;9.25;52.93
68986;BME280;56035;37.534;-122.308;2023-02-17T01:39:02;101889.09;;;9.18;52.50
68986;BME280;56035;37.534;-122.308;2023-02-17T01:41:29;101889.69;;;9.07;52.62
68986;BME280;56035;37.534;-122.308;2023-02-17T01:44:15;101894.28;;;8.93;54.74
68986;BME280;56035;37.534;-122.308;2023-02-17T01:46:45;101891.25;;;8.81;54.28
68986;BME280;56035;37.534;-122.308;2023-02-17T01:49:34;101896.69;;;8.68;55.36
68986;BME280;56035;37.534;-122.308;2023-02-17T01:52:11;101898.06;;;8.51;56.01
68986;BME280;56035;37.534;-122.308;2023-02-17T01:54:49;101902.19;;;8.40;56.31
68986;BME280;56035;37.534;-122.308;2023-02-17T01:57:21;101900.38;;;8.26;57.38
68986;BME280;56035;37.534;-122.308;2023-02-17T01:59:49;101900.03;;;8.14;57.51
68986;BME280;56035;37.534;-122.308;2023-02-17T02:02:16;101900.81;;;8.01;58.18
68986;BME280;56035;37.534;-122.308;2023-02-17T02:04:44;101899.63;;;7.89;57.90
68986;BME280;56035;37.534;-122.308;2023-02-17T02:07:33;101893.88;;;7.84;58.31
68986;BME280;56035;37.534;-122.308;2023-02-17T02:10:01;101907.28;;;7.72;58.85
68986;BME280;56035;37.534;-122.308;2023-02-17T02:12:33;101912.41;;;7.60;60.10
68986;BME280;56035;37.534;-122.308;2023-02-17T02:15:04;101910.00;;;7.50;61.12
68986;BME280;56035;37.534;-122.308;2023-02-17T02:17:56;101905.88;;;7.40;63.07
68986;BME280;56035;37.534;-122.308;2023-02-17T02:20:44;101913.09;;;7.26;63.85
68986;BME280;56035;37.534;-122.308;2023-02-17T02:23:33;101904.22;;;7.09;64.02
68986;BME280;56035;37.534;-122.308;2023-02-17T02:26:29;101904.88;;;6.96;65.39
68986;BME280;56035;37.534;-122.308;2023-02-17T02:34:42;101914.63;;;6.54;72.45
68986;BME280;56035;37.534;-122.308;2023-02-17T02:37:17;101926.72;;;6.45;71.60
68986;BME280;56035;37.534;-122.308;2023-02-17T02:39:49;101919.13;;;6.32;72.95
68986;BME280;56035;37.534;-122.308;2023-02-17T02:42:19;101913.91;;;6.23;72.33
68986;BME280;56035;37.534;-122.308;2023-02-17T02:44:46;101922.03;;;6.16;72.22
68986;BME280;56035;37.534;-122.308;2023-02-17T02:47:44;101919.53;;;6.06;73.28
68986;BME280;56035;37.534;-122.308;2023-02-17T02:50:14;101918.09;;;5.96;73.73
68986;BME280;56035;37.534;-122.308;2023-02-17T02:55:33;101923.47;;;5.81;73.57
68986;BME280;56035;37.534;-122.308;2023-02-17T02:58:05;101919.09;;;5.72;74.55
68986;BME280;56035;37.534;-122.308;2023-02-17T03:00:53;101915.38;;;5.64;75.37
68986;BME280;56035;37.534;-122.308;2023-02-17T03:03:38;101904.88;;;5.53;79.13
68986;BME280;56035;37.534;-122.308;2023-02-17T03:09:04;101908.56;;;5.37;79.13
68986;BME280;56035;37.534;-122.308;2023-02-17T03:11:31;101913.19;;;5.37;78.48
68986;BME280;56035;37.534;-122.308;2023-02-17T03:14:13;101917.97;;;5.35;78.95
68986;BME280;56035;37.534;-122.308;2023-02-17T03:16:41;101914.75;;;5.31;79.59
68986;BME280;56035;37.534;-122.308;2023-02-17T03:19:08;101921.59;;;5.27;81.42
68986;BME280;56035;37.534;-122.308;2023-02-17T03:24:08;101918.06;;;5.19;82.03
68986;BME280;56035;37.534;-122.308;2023-02-17T03:26:35;101924.91;;;5.14;80.77
68986;BME280;56035;37.534;-122.308;2023-02-17T03:29:01;101923.06;;;5.07;80.94
68986;BME280;56035;37.534;-122.308;2023-02-17T03:31:27;101917.09;;;5.03;81.70
68986;BME280;56035;37.534;-122.308;2023-02-17T03:33:53;101920.38;;;4.99;83.98
68986;BME280;56035;37.534;-122.308;2023-02-17T03:36:20;101931.47;;;4.97;83.86
68986;BME280;56035;37.534;-122.308;2023-02-17T03:38:46;101920.22;;;4.92;85.64
68986;BME280;56035;37.534;-122.308;2023-02-17T03:41:12;101924.00;;;4.91;86.07
68986;BME280;56035;37.534;-122.308;2023-02-17T03:43:38;101922.47;;;4.88;84.94
68986;BME280;56035;37.534;-122.308;2023-02-17T03:46:10;101913.94;;;4.83;88.06
68986;BME280;56035;37.534;-122.308;2023-02-17T03:48:37;101914.63;;;4.77;89.03
68986;BME280;56035;37.534;-122.308;2023-02-17T03:51:14;101928.47;;;4.76;92.74
68986;BME280;56035;37.534;-122.308;2023-02-17T03:53:42;101921.47;;;4.73;93.79
68986;BME280;56035;37.534;-122.308;2023-02-17T03:56:09;101929.84;;;4.72;91.64
68986;BME280;56035;37.534;-122.308;2023-02-17T03:58:37;101934.63;;;4.69;93.82
68986;BME280;56035;37.534;-122.308;2023-02-17T04:01:04;101931.91;;;4.69;95.49
68986;BME280;56035;37.534;-122.308;2023-02-17T04:03:31;101932.94;;;4.68;95.08
68986;BME280;56035;37.534;-122.308;2023-02-17T04:05:57;101924.75;;;4.68;93.54
68986;BME280;56035;37.534;-122.308;2023-02-17T04:08:23;101924.06;;;4.66;94.41
68986;BME280;56035;37.534;-122.308;2023-02-17T04:10:58;101925.94;;;4.66;95.94
68986;BME280;56035;37.534;-122.308;2023-02-17T04:13:24;101933.44;;;4.64;95.37
68986;BME280;56035;37.534;-122.308;2023-02-17T04:15:51;101932.59;;;4.63;96.87
68986;BME280;56035;37.534;-122.308;2023-02-17T04:18:19;101931.75;;;4.63;98.13
68986;BME280;56035;37.534;-122.308;2023-02-17T04:20:47;101940.28;;;4.60;97.42
68986;BME280;56035;37.534;-122.308;2023-02-17T04:23:34;101938.41;;;4.60;98.51
68986;BME280;56035;37.534;-122.308;2023-02-17T04:26:01;101935.00;;;4.58;100.00
68986;BME280;56035;37.534;-122.308;2023-02-17T04:28:27;101934.50;;;4.55;99.61
68986;BME280;56035;37.534;-122.308;2023-02-17T04:30:56;101934.66;;;4.53;97.90
68986;BME280;56035;37.534;-122.308;2023-02-17T04:33:23;101941.16;;;4.52;99.01
68986;BME280;56035;37.534;-122.308;2023-02-17T04:35:49;101948.66;;;4.50;99.32
68986;BME280;56035;37.534;-122.308;2023-02-17T04:38:16;101932.28;;;4.50;99.41
68986;BME280;56035;37.534;-122.308;2023-02-17T04:40:42;101936.03;;;4.49;100.00
68986;BME280;56035;37.534;-122.308;2023-02-17T04:43:09;101933.13;;;4.51;100.00
68986;BME280;56035;37.534;-122.308;2023-02-17T04:45:36;101941.31;;;4.51;100.00
68986;BME280;56035;37.534;-122.308;2023-02-17T04:48:02;101939.44;;;4.51;100.00
68986;BME280;56035;37.534;-122.308;2023-02-17T04:50:28;101940.81;;;4.47;100.00
68986;BME280;56035;37.534;-122.308;2023-02-17T04:52:54;101939.13;;;4.46;100.00
68986;BME280;56035;37.534;-122.308;2023-02-17T04:55:20;101940.81;;;4.47;100.00
68986;BME280;56035;37.534;-122.308;2023-02-17T04:57:47;101942.88;;;4.45;100.00
68986;BME280;56035;37.534;-122.308;2023-02-17T05:00:13;101945.63;;;4.45;100.00
68986;BME280;56035;37.534;-122.308;2023-02-17T05:02:39;101944.72;;;4.44;100.00
68986;BME280;56035;37.534;-122.308;2023-02-17T05:05:06;101942.69;;;4.46;100.00
68986;BME280;56035;37.534;-122.308;2023-02-17T05:07:32;101946.13;;;4.49;100.00
68986;BME280;56035;37.534;-122.308;2023-02-17T05:09:58;101949.84;;;4.47;100.00
68986;BME280;56035;37.534;-122.308;2023-02-17T05:12:25;101949.84;;;4.47;100.00
68986;BME280;56035;37.534;-122.308;2023-02-17T05:14:51;101943.03;;;4.52;100.00
68986;BME280;56035;37.534;-122.308;2023-02-17T05:17:17;101949.50;;;4.51;100.00
68986;BME280;56035;37.534;-122.308;2023-02-17T05:19:43;101950.19;;;4.53;100.00
68986;BME280;56035;37.534;-122.308;2023-02-17T05:22:09;101952.94;;;4.53;100.00
68986;BME280;56035;37.534;-122.308;2023-02-17T05:24:36;101947.47;;;4.53;100.00
68986;BME280;56035;37.534;-122.308;2023-02-17T05:27:02;101945.78;;;4.52;100.00
68986;BME280;56035;37.534;-122.308;2023-02-17T05:29:28;101945.06;;;4.50;100.00
68986;BME280;56035;37.534;-122.308;2023-02-17T05:31:54;101943.19;;;4.50;100.00
68986;BME280;56035;37.534;-122.308;2023-02-17T05:34:21;101943.03;;;4.52;100.00
68986;BME280;56035;37.534;-122.308;2023-02-17T05:36:47;101947.47;;;4.53;100.00
68986;BME280;56035;37.534;-122.308;2023-02-17T05:39:13;101935.69;;;4.52;100.00
68986;BME280;56035;37.534;-122.308;2023-02-17T05:41:39;101940.31;;;4.52;100.00
68986;BME280;56035;37.534;-122.308;2023-02-17T05:44:06;101949.50;;;4.51;100.00
68986;BME280;56035;37.534;-122.308;2023-02-17T05:46:32;101944.75;;;4.53;100.00
68986;BME280;56035;37.534;-122.308;2023-02-17T05:48:58;101938.59;;;4.51;100.00
68986;BME280;56035;37.534;-122.308;2023-02-17T05:51:24;101945.94;;;4.50;100.00
68986;BME280;56035;37.534;-122.308;2023-02-17T05:53:51;101944.22;;;4.49;100.00
68986;BME280;56035;37.534;-122.308;2023-02-17T05:56:17;101941.00;;;4.45;100.00
68986;BME280;56035;37.534;-122.308;2023-02-17T05:58:43;101952.56;;;4.47;100.00
68986;BME280;56035;37.534;-122.308;2023-02-17T06:01:10;101943.72;;;4.45;100.00
68986;BME280;56035;37.534;-122.308;2023-02-17T06:03:37;101942.00;;;4.44;100.00
68986;BME280;56035;37.534;-122.308;2023-02-17T06:06:04;101941.00;;;4.45;100.00
68986;BME280;56035;37.534;-122.308;2023-02-17T06:08:32;101944.91;;;4.43;100.00
68986;BME280;56035;37.534;-122.308;2023-02-17T06:10:58;101940.50;;;4.42;100.00
68986;BME280;56035;37.534;-122.308;2023-02-17T06:13:24;101945.97;;;4.42;100.00
68986;BME280;56035;37.534;-122.308;2023-02-17T06:15:51;101948.00;;;4.40;100.00
68986;BME280;56035;37.534;-122.308;2023-02-17T06:18:17;101956.19;;;4.40;100.00
68986;BME280;56035;37.534;-122.308;2023-02-17T06:20:43;101949.19;;;4.37;100.00
68986;BME280;56035;37.534;-122.308;2023-02-17T06:23:09;101950.91;;;4.38;100.00
68986;BME280;56035;37.534;-122.308;2023-02-17T06:25:36;101947.50;;;4.36;100.00
68986;BME280;56035;37.534;-122.308;2023-02-17T06:28:02;101954.97;;;4.34;100.00
68986;BME280;56035;37.534;-122.308;2023-02-17T06:30:29;101955.31;;;4.31;100.00
68986;BME280;56035;37.534;-122.308;2023-02-17T06:32:55;101958.06;;;4.31;100.00
68986;BME280;56035;37.534;-122.308;2023-02-17T06:35:23;101948.38;;;4.29;100.00
68986;BME280;56035;37.534;-122.308;2023-02-17T06:37:49;101953.81;;;4.29;100.00
68986;BME280;56035;37.534;-122.308;2023-02-17T06:40:16;101950.22;;;4.28;100.00
68986;BME280;56035;37.534;-122.308;2023-02-17T06:42:42;101948.19;;;4.30;100.00
68986;BME280;56035;37.534;-122.308;2023-02-17T06:45:08;101947.31;;;4.30;100.00
68986;BME280;56035;37.534;-122.308;2023-02-17T06:47:35;101950.22;;;4.28;100.00
68986;BME280;56035;37.534;-122.308;2023-02-17T06:50:01;101946.47;;;4.29;100.00
68986;BME280;56035;37.534;-122.308;2023-02-17T06:52:27;101947.31;;;4.30;100.00
68986;BME280;56035;37.534;-122.308;2023-02-17T06:54:53;101945.63;;;4.29;100.00
68986;BME280;56035;37.534;-122.308;2023-02-17T06:57:20;101946.63;;;4.28;100.00
68986;BME280;56035;37.534;-122.308;2023-02-17T06:59:46;101939.28;;;4.28;100.00
68986;BME280;56035;37.534;-122.308;2023-02-17T07:02:13;101945.97;;;4.26;100.00
68986;BME280;56035;37.534;-122.308;2023-02-17T07:04:40;101947.66;;;4.27;100.00
68986;BME280;56035;37.534;-122.308;2023-02-17T07:07:08;101945.97;;;4.26;100.00
68986;BME280;56035;37.534;-122.308;2023-02-17T07:09:35;101955.34;;;4.23;100.00
68986;BME280;56035;37.534;-122.308;2023-02-17T07:12:01;101948.34;;;4.20;100.00
68986;BME280;56035;37.534;-122.308;2023-02-17T07:14:28;101952.44;;;4.16;100.00
68986;BME280;56035;37.534;-122.308;2023-02-17T07:16:54;101950.06;;;4.13;100.00
68986;BME280;56035;37.534;-122.308;2023-02-17T07:19:20;101957.22;;;4.14;100.00
68986;BME280;56035;37.534;-122.308;2023-02-17T07:21:46;101951.44;;;4.09;100.00
68986;BME280;56035;37.534;-122.308;2023-02-17T07:24:12;101959.63;;;4.09;100.00
68986;BME280;56035;37.534;-122.308;2023-02-17T07:26:39;101953.66;;;4.06;100.00
68986;BME280;56035;37.534;-122.308;2023-02-17T07:29:06;101956.03;;;4.01;100.00
68986;BME280;56035;37.534;-122.308;2023-02-17T07:31:33;101948.19;;;3.97;100.00
68986;BME280;56035;37.534;-122.308;2023-02-17T07:34:00;101955.84;;;3.94;100.00
68986;BME280;56035;37.534;-122.308;2023-02-17T07:36:27;101954.31;;;3.91;100.00
68986;BME280;56035;37.534;-122.308;2023-02-17T07:38:54;101948.53;;;3.86;100.00
68986;BME280;56035;37.534;-122.308;2023-02-17T07:41:22;101949.53;;;3.85;100.00
68986;BME280;56035;37.534;-122.308;2023-02-17T07:43:53;101950.19;;;3.79;100.00
68986;BME280;56035;37.534;-122.308;2023-02-17T07:46:19;101947.16;;;3.74;100.00
68986;BME280;56035;37.534;-122.308;2023-02-17T07:48:46;101957.34;;;3.72;100.00
68986;BME280;56035;37.534;-122.308;2023-02-17T07:51:15;101957.03;;;3.67;100.00
68986;BME280;56035;37.534;-122.308;2023-02-17T07:53:42;101958.53;;;3.61;100.00
68986;BME280;56035;37.534;-122.308;2023-02-17T07:56:10;101960.03;;;3.56;100.00
68986;BME280;56035;37.534;-122.308;2023-02-17T07:58:39;101954.94;;;3.52;100.00
68986;BME280;56035;37.534;-122.308;2023-02-17T08:01:06;101949.47;;;3.44;100.00
68986;BME280;56035;37.534;-122.308;2023-02-17T08:03:33;101949.63;;;3.43;100.00
68986;BME280;56035;37.534;-122.308;2023-02-17T08:05:59;101945.72;;;3.37;100.00
68986;BME280;56035;37.534;-122.308;2023-02-17T08:08:26;101960.66;;;3.33;100.00
68986;BME280;56035;37.534;-122.308;2023-02-17T08:11:12;101953.19;;;3.27;100.00
68986;BME280;56035;37.534;-122.308;2023-02-17T08:13:58;101955.34;;;3.23;100.00
68986;BME280;56035;37.534;-122.308;2023-02-17T08:16:23;101953.84;;;3.21;100.00
68986;BME280;56035;37.534;-122.308;2023-02-17T08:18:52;101955.16;;;3.17;100.00
68986;BME280;56035;37.534;-122.308;2023-02-17T08:21:21;101957.53;;;3.12;100.00
68986;BME280;56035;37.534;-122.308;2023-02-17T08:23:47;101954.44;;;3.07;100.00
68986;BME280;56035;37.534;-122.308;2023-02-17T08:26:13;101958.34;;;3.04;100.00
68986;BME280;56035;37.534;-122.308;2023-02-17T08:28:40;101953.78;;;3.04;100.00
68986;BME280;56035;37.534;-122.308;2023-02-17T08:31:24;101959.53;;;3.01;100.00
68986;BME280;56035;37.534;-122.308;2023-02-17T08:33:51;101952.69;;;2.97;100.00
68986;BME280;56035;37.534;-122.308;2023-02-17T08:36:17;101949.44;;;2.94;100.00
68986;BME280;56035;37.534;-122.308;2023-02-17T08:38:47;101948.78;;;2.92;100.00
68986;BME280;56035;37.534;-122.308;2023-02-17T08:41:25;101951.81;;;2.89;100.00
68986;BME280;56035;37.534;-122.308;2023-02-17T08:43:55;101947.53;;;2.86;100.00
68986;BME280;56035;37.534;-122.308;2023-02-17T08:46:23;101955.88;;;2.85;100.00
68986;BME280;56035;37.534;-122.308;2023-02-17T08:48:49;101949.03;;;2.80;100.00
68986;BME280;56035;37.534;-122.308;2023-02-17T08:51:18;101950.59;;;2.83;100.00
68986;BME280;56035;37.534;-122.308;2023-02-17T08:53:49;101947.88;;;2.83;100.00
68986;BME280;56035;37.534;-122.308;2023-02-17T08:56:15;101950.59;;;2.83;100.00
68986;BME280;56035;37.534;-122.308;2023-02-17T08:58:42;101949.03;;;2.80;100.00
68986;BME280;56035;37.534;-122.308;2023-02-17T09:01:08;101947.53;;;2.78;100.00
68986;BME280;56035;37.534;-122.308;2023-02-17T09:03:35;101946.63;;;2.77;100.00
68986;BME280;56035;37.534;-122.308;2023-02-17T09:06:41;101952.25;;;2.76;100.00
68986;BME280;56035;37.534;-122.308;2023-02-17T09:09:09;101936.25;;;2.73;100.00
68986;BME280;56035;37.534;-122.308;2023-02-17T09:11:36;101939.28;;;2.70;100.00
68986;BME280;56035;37.534;-122.308;2023-02-17T09:14:03;101929.75;;;2.66;100.00
68986;BME280;56035;37.534;-122.308;2023-02-17T09:16:29;101938.59;;;2.68;100.00
68986;BME280;56035;37.534;-122.308;2023-02-17T09:18:55;101934.50;;;2.64;100.00
68986;BME280;56035;37.534;-122.308;2023-02-17T09:21:22;101933.13;;;2.60;100.00
68986;BME280;56035;37.534;-122.308;2023-02-17T09:23:48;101937.53;;;2.61;100.00
68986;BME280;56035;37.534;-122.308;2023-02-17T09:26:16;101932.59;;;2.56;100.00
68986;BME280;56035;37.534;-122.308;2023-02-17T09:28:43;101939.19;;;2.53;100.00
68986;BME280;56035;37.534;-122.308;2023-02-17T09:31:19;101939.38;;;2.52;100.00
68986;BME280;56035;37.534;-122.308;2023-02-17T09:33:47;101934.25;;;2.49;100.00
68986;BME280;56035;37.534;-122.308;2023-02-17T09:36:16;101917.41;;;2.45;100.00
68986;BME280;56035;37.534;-122.308;2023-02-17T09:38:44;101929.97;;;2.46;100.00
68986;BME280;56035;37.534;-122.308;2023-02-17T09:43:42;101916.16;;;2.40;100.00
68986;BME280;56035;37.534;-122.308;2023-02-17T09:46:30;101912.59;;;2.39;100.00
68986;BME280;56035;37.534;-122.308;2023-02-17T09:49:08;101911.91;;;2.37;100.00
68986;BME280;56035;37.534;-122.308;2023-02-17T09:57:28;101916.75;;;2.25;100.00
68986;BME280;56035;37.534;-122.308;2023-02-17T10:00:07;101909.91;;;2.21;100.00
68986;BME280;56035;37.534;-122.308;2023-02-17T10:02:44;101912.81;;;2.20;100.00
68986;BME280;56035;37.534;-122.308;2023-02-17T10:05:15;101911.09;;;2.19;100.00
68986;BME280;56035;37.534;-122.308;2023-02-17T10:10:22;101910.88;;;2.12;100.00
68986;BME280;56035;37.534;-122.308;2023-02-17T10:12:54;101915.47;;;2.11;100.00
68986;BME280;56035;37.534;-122.308;2023-02-17T10:15:43;101906.94;;;2.06;100.00
68986;BME280;56035;37.534;-122.308;2023-02-17T10:18:29;101910.81;;;2.04;100.00
68986;BME280;56035;37.534;-122.308;2023-02-17T10:21:11;101898.72;;;1.98;100.00
68986;BME280;56035;37.534;-122.308;2023-02-17T10:23:44;101901.59;;;1.97;100.00
68986;BME280;56035;37.534;-122.308;2023-02-17T10:29:36;101891.66;;;1.87;100.00
68986;BME280;56035;37.534;-122.308;2023-02-17T10:32:26;101896.56;;;1.84;100.00
68986;BME280;56035;37.534;-122.308;2023-02-17T10:37:48;101895.19;;;1.80;100.00
68986;BME280;56035;37.534;-122.308;2023-02-17T10:40:23;101885.31;;;1.79;100.00
68986;BME280;56035;37.534;-122.308;2023-02-17T10:42:54;101880.03;;;1.77;100.00
68986;BME280;56035;37.534;-122.308;2023-02-17T10:48:01;101867.94;;;1.72;100.00
68986;BME280;56035;37.534;-122.308;2023-02-17T10:50:29;101867.75;;;1.73;100.00
68986;BME280;56035;37.534;-122.308;2023-02-17T10:52:56;101865.91;;;1.74;100.00
68986;BME280;56035;37.534;-122.308;2023-02-17T10:58:15;101868.56;;;1.66;100.00
68986;BME280;56035;37.534;-122.308;2023-02-17T11:00:46;101867.53;;;1.67;100.00
68986;BME280;56035;37.534;-122.308;2023-02-17T11:03:19;101857.00;;;1.63;100.00
68986;BME280;56035;37.534;-122.308;2023-02-17T11:06:00;101863.28;;;1.64;100.00
68986;BME280;56035;37.534;-122.308;2023-02-17T11:08:40;101863.28;;;1.64;100.00
68986;BME280;56035;37.534;-122.308;2023-02-17T11:11:19;101854.97;;;1.66;100.00
68986;BME280;56035;37.534;-122.308;2023-02-17T11:19:04;101850.69;;;1.63;100.00
68986;BME280;56035;37.534;-122.308;2023-02-17T11:21:30;101845.56;;;1.60;100.00
68986;BME280;56035;37.534;-122.308;2023-02-17T11:24:03;101847.31;;;1.61;100.00
68986;BME280;56035;37.534;-122.308;2023-02-17T11:26:34;101843.88;;;1.59;100.00
68986;BME280;56035;37.534;-122.308;2023-02-17T11:29:30;101851.31;;;1.57;100.00
68986;BME280;56035;37.534;-122.308;2023-02-17T11:32:02;101847.22;;;1.53;100.00
68986;BME280;56035;37.534;-122.308;2023-02-17T11:34:36;101838.84;;;1.46;100.00
68986;BME280;56035;37.534;-122.308;2023-02-17T11:39:46;101841.72;;;1.45;100.00
68986;BME280;56035;37.534;-122.308;2023-02-17T11:42:27;101838.31;;;1.43;100.00
68986;BME280;56035;37.534;-122.308;2023-02-17T11:44:56;101833.72;;;1.43;100.00
68986;BME280;56035;37.534;-122.308;2023-02-17T11:50:29;101838.06;;;1.36;100.00
68986;BME280;56035;37.534;-122.308;2023-02-17T11:55:33;101826.91;;;1.39;100.00
68986;BME280;56035;37.534;-122.308;2023-02-17T12:01:38;101829.94;;;1.36;100.00
68986;BME280;56035;37.534;-122.308;2023-02-17T12:04:24;101824.81;;;1.33;100.00
68986;BME280;56035;37.534;-122.308;2023-02-17T12:18:00;101824.56;;;1.26;100.00
68986;BME280;56035;37.534;-122.308;2023-02-17T12:23:11;101831.47;;;1.21;100.00
68986;BME280;56035;37.534;-122.308;2023-02-17T12:25:54;101823.97;;;1.14;100.00
68986;BME280;56035;37.534;-122.308;2023-02-17T12:28:40;101818.53;;;1.14;100.00
68986;BME280;56035;37.534;-122.308;2023-02-17T12:37:08;101804.56;;;1.09;100.00
68986;BME280;56035;37.534;-122.308;2023-02-17T12:39:47;101805.41;;;1.10;100.00
68986;BME280;56035;37.534;-122.308;2023-02-17T12:43:29;101801.16;;;1.07;100.00
68986;BME280;56035;37.534;-122.308;2023-02-17T12:45:55;101803.19;;;1.05;100.00
68986;BME280;56035;37.534;-122.308;2023-02-17T12:48:49;101807.19;;;1.01;100.00
68986;BME280;56035;37.534;-122.308;2023-02-17T12:51:21;101804.66;;;1.00;100.00
68986;BME280;56035;37.534;-122.308;2023-02-17T12:54:12;101803.78;;;0.99;100.00
68986;BME280;56035;37.534;-122.308;2023-02-17T12:59:37;101801.22;;;0.98;100.00
68986;BME280;56035;37.534;-122.308;2023-02-17T13:02:11;101800.38;;;0.97;100.00
68986;BME280;56035;37.534;-122.308;2023-02-17T13:04:39;101800.38;;;0.97;100.00
68986;BME280;56035;37.534;-122.308;2023-02-17T13:07:25;101796.09;;;0.94;100.00
68986;BME280;56035;37.534;-122.308;2023-02-17T13:09:55;101802.72;;;0.92;100.00
68986;BME280;56035;37.534;-122.308;2023-02-17T13:14:58;101810.97;;;0.90;100.00
68986;BME280;56035;37.534;-122.308;2023-02-17T13:17:30;101803.00;;;0.89;100.00
68986;BME280;56035;37.534;-122.308;2023-02-17T13:22:39;101805.31;;;0.84;100.00
68986;BME280;56035;37.534;-122.308;2023-02-17T13:25:09;101807.34;;;0.82;100.00
68986;BME280;56035;37.534;-122.308;2023-02-17T13:27:37;101806.47;;;0.81;100.00
68986;BME280;56035;37.534;-122.308;2023-02-17T13:33:42;101805.88;;;0.87;100.00
68986;BME280;56035;37.534;-122.308;2023-02-17T13:36:14;101804.00;;;0.88;100.00
68986;BME280;56035;37.534;-122.308;2023-02-17T13:38:52;101805.19;;;0.85;100.00
68986;BME280;56035;37.534;-122.308;2023-02-17T13:41:20;101804.31;;;0.85;100.00
68986;BME280;56035;37.534;-122.308;2023-02-17T13:43:47;101801.94;;;0.82;100.00
68986;BME280;56035;37.534;-122.308;2023-02-17T13:46:25;101800.19;;;0.81;100.00
68986;BME280;56035;37.534;-122.308;2023-02-17T13:49:03;101808.75;;;0.86;100.00
68986;BME280;56035;37.534;-122.308;2023-02-17T13:51:31;101805.00;;;0.87;100.00
68986;BME280;56035;37.534;-122.308;2023-02-17T13:54:05;101804.16;;;0.86;100.00
68986;BME280;56035;37.534;-122.308;2023-02-17T13:56:31;101810.44;;;0.87;100.00
68986;BME280;56035;37.534;-122.308;2023-02-17T13:59:14;101800.44;;;0.87;100.00
68986;BME280;56035;37.534;-122.308;2023-02-17T14:01:45;101798.28;;;0.91;100.00
68986;BME280;56035;37.534;-122.308;2023-02-17T14:04:40;101795.97;;;0.96;100.00